This is the latest recevied weather packets stored in our database for station/object DF7PN-WX. If no packets are shown the sender has not sent any weather packets the latest 1 day(s).
| Time | Temp. | Humidity | Pressure | Rain* | Wind** | Luminosity | Snow |
|---|---|---|---|---|---|---|---|
| 1777947367 | 13.89° C | 99% | 1011.5 hPa | - | 0.89 m/s, 261° | - | - |
| 1777947067 | 13.89° C | 99% | 1011.6 hPa | - | 0 m/s | - | - |
| 1777946767 | 13.89° C | 98% | 1011.6 hPa | - | 0.45 m/s, 261° | - | - |
| 1777946467 | 13.89° C | 98% | 1011.7 hPa | - | 0.45 m/s, 261° | - | - |
| 1777946167 | 13.89° C | 98% | 1011.8 hPa | - | 0.45 m/s, 261° | - | - |
| 1777945867 | 13.89° C | 99% | 1011.8 hPa | - | 0.89 m/s, 261° | - | - |
| 1777945567 | 13.89° C | 10% | - | - | 0.89 m/s, 261° | - | - |
| 1777945266 | 13.89° C | 10% | - | - | 0 m/s | - | - |
| 1777944966 | 13.89° C | 99% | 1011.8 hPa | - | 0.45 m/s, 235° | - | - |
| 1777944666 | 13.89° C | 10% | - | - | 0.45 m/s, 235° | - | - |
| 1777944366 | 13.89° C | 10% | - | - | 0.89 m/s, 235° | - | - |
| 1777944066 | 13.89° C | 10% | - | - | 0.89 m/s, 235° | - | - |
| 1777943766 | 13.89° C | 99% | 1012 hPa | - | 0 m/s | - | - |
| 1777943466 | 13.89° C | 97% | 1012 hPa | - | 0 m/s | - | - |
| 1777943166 | 13.89° C | 96% | 1012 hPa | - | 0 m/s | - | - |
| 1777942866 | 14.44° C | 94% | 1012.1 hPa | - | 0.45 m/s, 226° | - | - |
| 1777942566 | 14.44° C | 94% | 1012.2 hPa | - | 0.45 m/s, 226° | - | - |
| 1777942266 | 14.44° C | 94% | 1012.2 hPa | - | 0.89 m/s, 226° | - | - |
| 1777941966 | 14.44° C | 94% | 1012.1 hPa | - | 0.89 m/s, 226° | - | - |
| 1777941666 | 14.44° C | 93% | 1012.1 hPa | - | 0.89 m/s, 226° | - | - |
| 1777941366 | 14.44° C | 93% | 1012.1 hPa | - | 0 m/s | - | - |
| 1777941065 | 14.44° C | 92% | 1012.1 hPa | - | 0 m/s | - | - |
| 1777940766 | 14.44° C | 92% | 1012.1 hPa | - | 0 m/s | - | - |
| 1777940465 | 15° C | 91% | 1012.1 hPa | - | 0 m/s | - | - |
| 1777940166 | 15° C | 90% | 1012.1 hPa | - | 0 m/s | - | - |
* Rain since midnight (hover to see other rain measurements)
** Current wind speed in m/s (hover to see current wind gust speed)